sensor_id;sensor_type;location;lat;lon;timestamp;pressure;altitude;pressure_sealevel;temperature;humidity
81387;BME280;70842;50.744;7.114;2024-01-16T00:00:20;100434.44;;;3.63;65.58
81387;BME280;70842;50.744;7.114;2024-01-16T00:02:46;100429.81;;;3.52;66.14
81387;BME280;70842;50.744;7.114;2024-01-16T00:05:13;100432.28;;;3.55;66.35
81387;BME280;70842;50.744;7.114;2024-01-16T00:07:39;100434.94;;;3.85;65.71
81387;BME280;70842;50.744;7.114;2024-01-16T00:10:09;100420.44;;;3.48;66.29
81387;BME280;70842;50.744;7.114;2024-01-16T00:12:35;100436.16;;;3.64;66.29
81387;BME280;70842;50.744;7.114;2024-01-16T00:15:02;100428.06;;;3.98;65.07
81387;BME280;70842;50.744;7.114;2024-01-16T00:17:28;100427.78;;;3.57;66.72
81387;BME280;70842;50.744;7.114;2024-01-16T00:19:55;100439.66;;;3.94;65.24
81387;BME280;70842;50.744;7.114;2024-01-16T00:22:21;100427.28;;;3.51;65.91
81387;BME280;70842;50.744;7.114;2024-01-16T00:24:47;100428.59;;;3.73;65.29
81387;BME280;70842;50.744;7.114;2024-01-16T00:27:14;100425.50;;;3.67;66.01
81387;BME280;70842;50.744;7.114;2024-01-16T00:29:40;100420.44;;;3.64;66.04
81387;BME280;70842;50.744;7.114;2024-01-16T00:32:07;100430.41;;;3.73;65.00
81387;BME280;70842;50.744;7.114;2024-01-16T00:34:34;100437.50;;;3.71;65.41
81387;BME280;70842;50.744;7.114;2024-01-16T00:37:00;100434.06;;;3.39;66.14
81387;BME280;70842;50.744;7.114;2024-01-16T00:39:27;100445.94;;;3.29;66.05
81387;BME280;70842;50.744;7.114;2024-01-16T00:41:53;100443.53;;;3.26;66.75
81387;BME280;70842;50.744;7.114;2024-01-16T00:44:19;100484.56;;;2.93;67.67
81387;BME280;70842;50.744;7.114;2024-01-16T00:46:46;100461.25;;;3.21;67.33
81387;BME280;70842;50.744;7.114;2024-01-16T00:49:12;100462.59;;;3.44;67.10
81387;BME280;70842;50.744;7.114;2024-01-16T00:51:39;100462.09;;;3.53;66.98
81387;BME280;70842;50.744;7.114;2024-01-16T00:54:05;100455.84;;;3.55;66.32
81387;BME280;70842;50.744;7.114;2024-01-16T00:56:35;100466.06;;;3.44;66.86
81387;BME280;70842;50.744;7.114;2024-01-16T00:59:02;100464.53;;;3.71;66.28
81387;BME280;70842;50.744;7.114;2024-01-16T01:01:29;100472.47;;;3.85;65.64
81387;BME280;70842;50.744;7.114;2024-01-16T01:03:55;100471.78;;;3.35;66.84
81387;BME280;70842;50.744;7.114;2024-01-16T01:06:22;100475.97;;;3.70;66.09
81387;BME280;70842;50.744;7.114;2024-01-16T01:08:48;100475.28;;;3.51;66.30
81387;BME280;70842;50.744;7.114;2024-01-16T01:11:15;100464.81;;;3.67;65.57
81387;BME280;70842;50.744;7.114;2024-01-16T01:13:42;100474.78;;;3.60;65.75
81387;BME280;70842;50.744;7.114;2024-01-16T01:16:08;100479.09;;;3.77;65.20
81387;BME280;70842;50.744;7.114;2024-01-16T01:18:35;100482.56;;;3.77;65.50
81387;BME280;70842;50.744;7.114;2024-01-16T01:21:01;100485.69;;;3.37;66.39
81387;BME280;70842;50.744;7.114;2024-01-16T01:23:28;100489.47;;;3.47;66.10
81387;BME280;70842;50.744;7.114;2024-01-16T01:25:54;100485.66;;;3.22;66.51
81387;BME280;70842;50.744;7.114;2024-01-16T01:28:21;100490.72;;;3.40;65.64
81387;BME280;70842;50.744;7.114;2024-01-16T01:30:47;100490.22;;;3.80;65.02
81387;BME280;70842;50.744;7.114;2024-01-16T01:33:13;100491.06;;;3.65;65.53
81387;BME280;70842;50.744;7.114;2024-01-16T01:35:40;100492.94;;;3.63;65.28
81387;BME280;70842;50.744;7.114;2024-01-16T01:38:07;100496.78;;;3.09;66.36
81387;BME280;70842;50.744;7.114;2024-01-16T01:40:34;100495.00;;;2.77;68.21
81387;BME280;70842;50.744;7.114;2024-01-16T01:43:17;100508.22;;;2.91;68.23
81387;BME280;70842;50.744;7.114;2024-01-16T01:45:44;100497.47;;;2.63;67.96
81387;BME280;70842;50.744;7.114;2024-01-16T01:48:10;100506.25;;;2.62;68.09
81387;BME280;70842;50.744;7.114;2024-01-16T01:50:37;100511.72;;;2.58;68.34
81387;BME280;70842;50.744;7.114;2024-01-16T01:53:05;100510.50;;;2.97;67.87
81387;BME280;70842;50.744;7.114;2024-01-16T01:55:31;100509.00;;;2.59;68.23
81387;BME280;70842;50.744;7.114;2024-01-16T01:57:58;100512.63;;;3.06;67.05
81387;BME280;70842;50.744;7.114;2024-01-16T02:00:24;100505.81;;;2.87;67.29
81387;BME280;70842;50.744;7.114;2024-01-16T02:02:51;100509.19;;;2.89;67.61
81387;BME280;70842;50.744;7.114;2024-01-16T02:05:17;100512.16;;;2.66;68.00
81387;BME280;70842;50.744;7.114;2024-01-16T02:07:44;100517.59;;;2.78;68.01
81387;BME280;70842;50.744;7.114;2024-01-16T02:10:10;100524.53;;;3.12;67.31
81387;BME280;70842;50.744;7.114;2024-01-16T02:12:37;100517.09;;;2.55;69.46
81387;BME280;70842;50.744;7.114;2024-01-16T02:15:04;100531.53;;;2.27;71.25
81387;BME280;70842;50.744;7.114;2024-01-16T02:17:31;100523.88;;;2.59;71.83
81387;BME280;70842;50.744;7.114;2024-01-16T02:19:57;100531.16;;;2.18;74.27
81387;BME280;70842;50.744;7.114;2024-01-16T02:22:25;100528.03;;;2.46;72.93
81387;BME280;70842;50.744;7.114;2024-01-16T02:24:54;100525.00;;;2.36;73.72
81387;BME280;70842;50.744;7.114;2024-01-16T02:27:21;100528.25;;;2.24;73.94
81387;BME280;70842;50.744;7.114;2024-01-16T02:29:48;100523.25;;;2.36;73.71
81387;BME280;70842;50.744;7.114;2024-01-16T02:32:16;100510.22;;;2.01;74.70
81387;BME280;70842;50.744;7.114;2024-01-16T02:34:43;100517.94;;;2.55;73.72
81387;BME280;70842;50.744;7.114;2024-01-16T02:37:10;100524.69;;;2.25;73.61
81387;BME280;70842;50.744;7.114;2024-01-16T02:39:36;100522.59;;;2.83;71.95
81387;BME280;70842;50.744;7.114;2024-01-16T02:42:03;100525.44;;;2.27;72.99
81387;BME280;70842;50.744;7.114;2024-01-16T02:44:29;100523.13;;;2.40;73.38
81387;BME280;70842;50.744;7.114;2024-01-16T02:46:56;100524.03;;;2.38;73.30
81387;BME280;70842;50.744;7.114;2024-01-16T02:49:22;100516.41;;;2.68;71.98
81387;BME280;70842;50.744;7.114;2024-01-16T02:51:49;100518.94;;;2.35;72.21
81387;BME280;70842;50.744;7.114;2024-01-16T02:54:15;100516.84;;;2.59;71.94
81387;BME280;70842;50.744;7.114;2024-01-16T02:56:41;100524.00;;;2.90;70.70
81387;BME280;70842;50.744;7.114;2024-01-16T02:59:09;100512.88;;;2.69;70.84
81387;BME280;70842;50.744;7.114;2024-01-16T03:01:35;100520.81;;;3.00;70.06
81387;BME280;70842;50.744;7.114;2024-01-16T03:04:02;100528.47;;;2.71;70.79
81387;BME280;70842;50.744;7.114;2024-01-16T03:06:28;100518.91;;;2.01;72.10
81387;BME280;70842;50.744;7.114;2024-01-16T03:08:56;100523.09;;;2.22;71.19
81387;BME280;70842;50.744;7.114;2024-01-16T03:11:23;100530.47;;;2.66;70.93
81387;BME280;70842;50.744;7.114;2024-01-16T03:13:49;100525.19;;;3.00;69.73
81387;BME280;70842;50.744;7.114;2024-01-16T03:16:21;100525.66;;;2.91;69.46
81387;BME280;70842;50.744;7.114;2024-01-16T03:18:48;100521.84;;;2.47;70.73
81387;BME280;70842;50.744;7.114;2024-01-16T03:21:14;100521.78;;;2.65;70.62
81387;BME280;70842;50.744;7.114;2024-01-16T03:23:41;100522.84;;;2.78;70.90
81387;BME280;70842;50.744;7.114;2024-01-16T03:26:12;100521.41;;;2.56;70.75
81387;BME280;70842;50.744;7.114;2024-01-16T03:28:38;100523.69;;;2.79;70.27
81387;BME280;70842;50.744;7.114;2024-01-16T03:31:06;100528.13;;;2.94;69.92
81387;BME280;70842;50.744;7.114;2024-01-16T03:33:33;100512.47;;;2.25;72.10
81387;BME280;70842;50.744;7.114;2024-01-16T03:36:01;100513.47;;;2.74;70.63
81387;BME280;70842;50.744;7.114;2024-01-16T03:38:27;100517.25;;;3.01;69.25
81387;BME280;70842;50.744;7.114;2024-01-16T03:40:54;100510.16;;;2.88;69.62
81387;BME280;70842;50.744;7.114;2024-01-16T03:43:20;100520.19;;;2.46;69.74
81387;BME280;70842;50.744;7.114;2024-01-16T03:45:46;100523.06;;;2.74;69.24
81387;BME280;70842;50.744;7.114;2024-01-16T03:48:13;100520.81;;;3.00;68.72
81387;BME280;70842;50.744;7.114;2024-01-16T03:50:40;100519.34;;;2.45;70.23
81387;BME280;70842;50.744;7.114;2024-01-16T03:53:10;100518.22;;;2.83;69.16
81387;BME280;70842;50.744;7.114;2024-01-16T03:55:36;100511.41;;;2.47;70.50
81387;BME280;70842;50.744;7.114;2024-01-16T03:58:03;100522.72;;;2.97;69.77
81387;BME280;70842;50.744;7.114;2024-01-16T04:00:29;100523.34;;;2.52;71.24
81387;BME280;70842;50.744;7.114;2024-01-16T04:02:55;100517.72;;;2.43;72.02
81387;BME280;70842;50.744;7.114;2024-01-16T04:05:22;100519.84;;;2.86;71.23
81387;BME280;70842;50.744;7.114;2024-01-16T04:07:49;100511.22;;;1.98;74.47
81387;BME280;70842;50.744;7.114;2024-01-16T04:10:15;100526.41;;;2.26;74.52
81387;BME280;70842;50.744;7.114;2024-01-16T04:12:41;100519.63;;;2.39;74.26
81387;BME280;70842;50.744;7.114;2024-01-16T04:15:08;100517.94;;;2.38;74.08
81387;BME280;70842;50.744;7.114;2024-01-16T04:17:34;100510.03;;;2.40;73.78
81387;BME280;70842;50.744;7.114;2024-01-16T04:20:01;100521.72;;;2.50;73.51
81387;BME280;70842;50.744;7.114;2024-01-16T04:22:27;100504.84;;;2.21;74.27
81387;BME280;70842;50.744;7.114;2024-01-16T04:24:54;100514.19;;;2.26;73.88
81387;BME280;70842;50.744;7.114;2024-01-16T04:27:20;100512.41;;;2.44;72.54
81387;BME280;70842;50.744;7.114;2024-01-16T04:29:47;100503.50;;;1.95;74.61
81387;BME280;70842;50.744;7.114;2024-01-16T04:32:13;100506.94;;;2.31;73.32
81387;BME280;70842;50.744;7.114;2024-01-16T04:34:40;100501.56;;;2.69;71.84
81387;BME280;70842;50.744;7.114;2024-01-16T04:37:06;100515.09;;;2.60;71.46
81387;BME280;70842;50.744;7.114;2024-01-16T04:39:32;100509.00;;;2.25;72.69
81387;BME280;70842;50.744;7.114;2024-01-16T04:41:59;100507.03;;;2.47;71.89
81387;BME280;70842;50.744;7.114;2024-01-16T04:44:25;100510.28;;;2.52;71.39
81387;BME280;70842;50.744;7.114;2024-01-16T04:46:52;100504.31;;;2.66;71.79
81387;BME280;70842;50.744;7.114;2024-01-16T04:49:18;100510.81;;;2.59;71.83
81387;BME280;70842;50.744;7.114;2024-01-16T04:51:45;100509.25;;;2.55;71.68
81387;BME280;70842;50.744;7.114;2024-01-16T04:54:12;100504.56;;;2.44;72.22
81387;BME280;70842;50.744;7.114;2024-01-16T04:56:38;100508.41;;;2.20;73.21
81387;BME280;70842;50.744;7.114;2024-01-16T04:59:05;100509.78;;;2.44;72.42
81387;BME280;70842;50.744;7.114;2024-01-16T05:01:31;100501.78;;;2.47;72.47
81387;BME280;70842;50.744;7.114;2024-01-16T05:03:58;100509.56;;;2.49;72.21
81387;BME280;70842;50.744;7.114;2024-01-16T05:06:25;100512.41;;;2.44;71.71
81387;BME280;70842;50.744;7.114;2024-01-16T05:08:51;100506.63;;;2.55;71.39
81387;BME280;70842;50.744;7.114;2024-01-16T05:11:18;100513.34;;;2.60;70.88
81387;BME280;70842;50.744;7.114;2024-01-16T05:13:44;100499.25;;;2.95;69.90
81387;BME280;70842;50.744;7.114;2024-01-16T05:16:11;100508.56;;;2.51;71.42
81387;BME280;70842;50.744;7.114;2024-01-16T05:18:37;100495.03;;;2.26;71.80
81387;BME280;70842;50.744;7.114;2024-01-16T05:21:04;100499.59;;;2.40;71.67
81387;BME280;70842;50.744;7.114;2024-01-16T05:23:31;100505.81;;;2.87;70.45
81387;BME280;70842;50.744;7.114;2024-01-16T05:25:57;100500.63;;;2.53;71.00
81387;BME280;70842;50.744;7.114;2024-01-16T05:28:24;100502.03;;;2.60;71.21
81387;BME280;70842;50.744;7.114;2024-01-16T05:30:50;100496.09;;;2.73;69.76
81387;BME280;70842;50.744;7.114;2024-01-16T05:33:17;100500.03;;;2.97;68.98
81387;BME280;70842;50.744;7.114;2024-01-16T05:35:43;100494.09;;;3.11;69.29
81387;BME280;70842;50.744;7.114;2024-01-16T05:38:10;100497.84;;;3.38;67.92
81387;BME280;70842;50.744;7.114;2024-01-16T05:40:38;100488.66;;;2.98;69.07
81387;BME280;70842;50.744;7.114;2024-01-16T05:43:05;100484.94;;;3.02;68.42
81387;BME280;70842;50.744;7.114;2024-01-16T05:45:32;100484.34;;;2.65;70.09
81387;BME280;70842;50.744;7.114;2024-01-16T05:47:58;100483.22;;;3.34;68.13
81387;BME280;70842;50.744;7.114;2024-01-16T05:50:25;100480.94;;;3.44;67.23
81387;BME280;70842;50.744;7.114;2024-01-16T05:52:52;100478.22;;;3.61;67.02
81387;BME280;70842;50.744;7.114;2024-01-16T05:55:18;100484.22;;;3.32;67.56
81387;BME280;70842;50.744;7.114;2024-01-16T05:57:44;100486.19;;;3.59;66.04
81387;BME280;70842;50.744;7.114;2024-01-16T06:00:11;100477.53;;;3.88;65.21
81387;BME280;70842;50.744;7.114;2024-01-16T06:02:38;100479.16;;;3.75;65.59
81387;BME280;70842;50.744;7.114;2024-01-16T06:05:04;100480.63;;;3.50;64.71
81387;BME280;70842;50.744;7.114;2024-01-16T06:07:32;100476.72;;;4.47;63.39
81387;BME280;70842;50.744;7.114;2024-01-16T06:09:58;100462.91;;;4.30;62.81
81387;BME280;70842;50.744;7.114;2024-01-16T06:12:24;100479.41;;;3.24;65.21
81387;BME280;70842;50.744;7.114;2024-01-16T06:14:51;100475.69;;;3.59;64.27
81387;BME280;70842;50.744;7.114;2024-01-16T06:17:17;100482.03;;;3.55;63.87
81387;BME280;70842;50.744;7.114;2024-01-16T06:19:44;100481.59;;;3.32;64.84
81387;BME280;70842;50.744;7.114;2024-01-16T06:22:10;100475.84;;;2.77;65.78
81387;BME280;70842;50.744;7.114;2024-01-16T06:24:37;100488.03;;;3.42;64.36
81387;BME280;70842;50.744;7.114;2024-01-16T06:27:07;100488.53;;;3.48;64.27
81387;BME280;70842;50.744;7.114;2024-01-16T06:29:33;100482.59;;;3.29;63.91
81387;BME280;70842;50.744;7.114;2024-01-16T06:32:01;100480.34;;;3.39;63.61
81387;BME280;70842;50.744;7.114;2024-01-16T06:34:27;100481.25;;;3.38;63.81
81387;BME280;70842;50.744;7.114;2024-01-16T06:36:55;100469.97;;;3.37;62.96
81387;BME280;70842;50.744;7.114;2024-01-16T06:39:21;100483.72;;;3.41;63.19
81387;BME280;70842;50.744;7.114;2024-01-16T06:41:47;100485.09;;;2.67;64.77
81387;BME280;70842;50.744;7.114;2024-01-16T06:44:14;100484.66;;;2.91;64.40
81387;BME280;70842;50.744;7.114;2024-01-16T06:46:40;100487.44;;;3.37;63.06
81387;BME280;70842;50.744;7.114;2024-01-16T06:49:07;100495.34;;;2.87;63.89
81387;BME280;70842;50.744;7.114;2024-01-16T06:51:33;100484.91;;;2.87;63.74
81387;BME280;70842;50.744;7.114;2024-01-16T06:54:00;100493.03;;;2.98;63.12
81387;BME280;70842;50.744;7.114;2024-01-16T06:56:26;100500.34;;;3.40;62.67
81387;BME280;70842;50.744;7.114;2024-01-16T06:58:53;100480.38;;;2.90;62.35
81387;BME280;70842;50.744;7.114;2024-01-16T07:01:19;100495.84;;;3.10;63.45
81387;BME280;70842;50.744;7.114;2024-01-16T07:03:45;100496.47;;;2.66;62.93
81387;BME280;70842;50.744;7.114;2024-01-16T07:06:12;100498.94;;;3.01;63.21
81387;BME280;70842;50.744;7.114;2024-01-16T07:08:39;100491.59;;;3.41;61.90
81387;BME280;70842;50.744;7.114;2024-01-16T07:11:05;100495.66;;;2.98;62.69
81387;BME280;70842;50.744;7.114;2024-01-16T07:13:34;100506.41;;;2.59;62.40
81387;BME280;70842;50.744;7.114;2024-01-16T07:16:01;100501.78;;;2.81;62.14
81387;BME280;70842;50.744;7.114;2024-01-16T07:18:28;100504.94;;;2.71;62.04
81387;BME280;70842;50.744;7.114;2024-01-16T07:20:54;100488.25;;;2.73;61.50
81387;BME280;70842;50.744;7.114;2024-01-16T07:23:21;100507.09;;;2.63;62.26
81387;BME280;70842;50.744;7.114;2024-01-16T07:25:47;100510.47;;;2.82;61.33
81387;BME280;70842;50.744;7.114;2024-01-16T07:28:14;100509.69;;;2.80;61.08
81387;BME280;70842;50.744;7.114;2024-01-16T07:30:41;100527.84;;;2.83;60.86
81387;BME280;70842;50.744;7.114;2024-01-16T07:33:07;100511.47;;;2.79;61.10
81387;BME280;70842;50.744;7.114;2024-01-16T07:35:34;100527.03;;;2.31;61.82
81387;BME280;70842;50.744;7.114;2024-01-16T07:38:00;100530.16;;;2.55;61.08
81387;BME280;70842;50.744;7.114;2024-01-16T07:40:30;100526.94;;;2.67;60.73
81387;BME280;70842;50.744;7.114;2024-01-16T07:42:57;100528.06;;;2.78;60.11
81387;BME280;70842;50.744;7.114;2024-01-16T07:45:24;100532.78;;;2.72;60.56
81387;BME280;70842;50.744;7.114;2024-01-16T07:47:50;100525.00;;;2.87;60.18
81387;BME280;70842;50.744;7.114;2024-01-16T07:50:17;100532.72;;;3.06;59.74
81387;BME280;70842;50.744;7.114;2024-01-16T07:52:43;100528.03;;;2.80;59.56
81387;BME280;70842;50.744;7.114;2024-01-16T07:55:10;100535.47;;;2.36;61.06
81387;BME280;70842;50.744;7.114;2024-01-16T07:57:36;100522.78;;;2.28;60.84
81387;BME280;70842;50.744;7.114;2024-01-16T08:00:03;100535.56;;;2.34;61.02
81387;BME280;70842;50.744;7.114;2024-01-16T08:02:33;100525.41;;;2.46;60.54
81387;BME280;70842;50.744;7.114;2024-01-16T08:05:00;100518.69;;;2.40;61.21
81387;BME280;70842;50.744;7.114;2024-01-16T08:07:27;100533.94;;;2.49;60.78
81387;BME280;70842;50.744;7.114;2024-01-16T08:09:53;100534.34;;;2.42;61.37
81387;BME280;70842;50.744;7.114;2024-01-16T08:12:20;100542.16;;;2.24;60.92
81387;BME280;70842;50.744;7.114;2024-01-16T08:14:46;100549.72;;;2.48;60.44
81387;BME280;70842;50.744;7.114;2024-01-16T08:17:12;100541.75;;;2.15;60.61
81387;BME280;70842;50.744;7.114;2024-01-16T08:19:39;100554.13;;;2.11;60.82
81387;BME280;70842;50.744;7.114;2024-01-16T08:22:06;100549.75;;;2.12;60.53
81387;BME280;70842;50.744;7.114;2024-01-16T08:24:34;100555.50;;;2.01;61.51
81387;BME280;70842;50.744;7.114;2024-01-16T08:27:01;100558.63;;;2.08;60.04
81387;BME280;70842;50.744;7.114;2024-01-16T08:29:29;100558.41;;;2.12;59.99
81387;BME280;70842;50.744;7.114;2024-01-16T08:31:55;100563.59;;;2.14;60.20
81387;BME280;70842;50.744;7.114;2024-01-16T08:34:21;100558.88;;;2.03;59.74
81387;BME280;70842;50.744;7.114;2024-01-16T08:36:48;100549.22;;;2.22;59.64
81387;BME280;70842;50.744;7.114;2024-01-16T08:39:15;100562.84;;;2.46;59.04
81387;BME280;70842;50.744;7.114;2024-01-16T08:41:42;100569.44;;;2.19;59.08
81387;BME280;70842;50.744;7.114;2024-01-16T08:44:11;100563.38;;;2.35;58.53
81387;BME280;70842;50.744;7.114;2024-01-16T08:46:37;100578.28;;;2.33;58.11
81387;BME280;70842;50.744;7.114;2024-01-16T08:49:04;100577.34;;;2.17;58.48
81387;BME280;70842;50.744;7.114;2024-01-16T08:51:30;100576.16;;;2.06;59.26
81387;BME280;70842;50.744;7.114;2024-01-16T08:53:56;100581.06;;;2.30;58.87
81387;BME280;70842;50.744;7.114;2024-01-16T08:56:23;100576.53;;;2.34;58.36
81387;BME280;70842;50.744;7.114;2024-01-16T08:58:49;100580.22;;;2.30;58.10
81387;BME280;70842;50.744;7.114;2024-01-16T09:01:16;100582.63;;;2.52;57.20
81387;BME280;70842;50.744;7.114;2024-01-16T09:03:42;100570.63;;;2.30;57.83
81387;BME280;70842;50.744;7.114;2024-01-16T09:06:09;100578.03;;;2.40;57.56
81387;BME280;70842;50.744;7.114;2024-01-16T09:08:37;100566.94;;;2.52;57.56
81387;BME280;70842;50.744;7.114;2024-01-16T09:11:03;100572.50;;;2.80;56.82
81387;BME280;70842;50.744;7.114;2024-01-16T09:13:30;100582.09;;;2.79;55.97
81387;BME280;70842;50.744;7.114;2024-01-16T09:15:56;100576.59;;;2.32;56.45
81387;BME280;70842;50.744;7.114;2024-01-16T09:18:22;100574.84;;;2.84;57.04
81387;BME280;70842;50.744;7.114;2024-01-16T09:20:49;100579.06;;;2.53;57.03
81387;BME280;70842;50.744;7.114;2024-01-16T09:23:16;100572.78;;;2.74;54.80
81387;BME280;70842;50.744;7.114;2024-01-16T09:25:42;100582.97;;;2.80;55.17
81387;BME280;70842;50.744;7.114;2024-01-16T09:28:13;100581.94;;;2.82;55.61
81387;BME280;70842;50.744;7.114;2024-01-16T09:30:41;100585.06;;;2.55;55.31
81387;BME280;70842;50.744;7.114;2024-01-16T09:33:08;100589.00;;;2.63;55.97
81387;BME280;70842;50.744;7.114;2024-01-16T09:35:36;100584.41;;;2.68;55.37
81387;BME280;70842;50.744;7.114;2024-01-16T09:38:03;100592.03;;;2.73;55.26
81387;BME280;70842;50.744;7.114;2024-01-16T09:40:33;100589.00;;;2.80;55.27
81387;BME280;70842;50.744;7.114;2024-01-16T09:42:59;100586.03;;;2.54;54.76
81387;BME280;70842;50.744;7.114;2024-01-16T09:45:26;100582.00;;;2.64;55.29
81387;BME280;70842;50.744;7.114;2024-01-16T09:47:53;100576.78;;;2.64;55.15
81387;BME280;70842;50.744;7.114;2024-01-16T09:50:20;100586.16;;;2.85;54.73
81387;BME280;70842;50.744;7.114;2024-01-16T09:52:48;100580.16;;;3.00;54.59
81387;BME280;70842;50.744;7.114;2024-01-16T09:55:15;100587.66;;;3.23;53.86
81387;BME280;70842;50.744;7.114;2024-01-16T09:57:45;100589.78;;;2.99;54.19
81387;BME280;70842;50.744;7.114;2024-01-16T10:00:12;100586.94;;;3.04;54.04
81387;BME280;70842;50.744;7.114;2024-01-16T10:02:39;100583.63;;;3.33;53.63
81387;BME280;70842;50.744;7.114;2024-01-16T10:05:07;100587.59;;;3.57;52.83
81387;BME280;70842;50.744;7.114;2024-01-16T10:07:37;100578.00;;;3.56;52.41
81387;BME280;70842;50.744;7.114;2024-01-16T10:10:04;100580.56;;;3.73;52.54
81387;BME280;70842;50.744;7.114;2024-01-16T10:12:31;100560.91;;;4.13;51.60
81387;BME280;70842;50.744;7.114;2024-01-16T10:14:59;100571.28;;;3.68;51.81
81387;BME280;70842;50.744;7.114;2024-01-16T10:17:39;100571.72;;;3.60;52.13
81387;BME280;70842;50.744;7.114;2024-01-16T10:20:07;100573.88;;;3.37;53.29
81387;BME280;70842;50.744;7.114;2024-01-16T10:22:40;100567.50;;;3.08;53.21
81387;BME280;70842;50.744;7.114;2024-01-16T10:25:08;100566.53;;;2.93;53.94
81387;BME280;70842;50.744;7.114;2024-01-16T10:27:36;100571.22;;;3.04;54.02
81387;BME280;70842;50.744;7.114;2024-01-16T10:30:04;100566.44;;;3.12;54.12
81387;BME280;70842;50.744;7.114;2024-01-16T10:32:33;100560.41;;;3.27;53.92
81387;BME280;70842;50.744;7.114;2024-01-16T10:35:05;100557.63;;;3.46;53.31
81387;BME280;70842;50.744;7.114;2024-01-16T10:37:51;100547.53;;;3.86;52.49
81387;BME280;70842;50.744;7.114;2024-01-16T10:40:20;100543.75;;;3.76;52.75
81387;BME280;70842;50.744;7.114;2024-01-16T10:45:27;100533.41;;;3.73;52.25
81387;BME280;70842;50.744;7.114;2024-01-16T10:48:05;100533.22;;;4.08;51.86
81387;BME280;70842;50.744;7.114;2024-01-16T10:50:37;100526.16;;;3.94;52.15
81387;BME280;70842;50.744;7.114;2024-01-16T10:53:07;100514.81;;;4.09;51.97
81387;BME280;70842;50.744;7.114;2024-01-16T10:55:45;100517.34;;;4.40;51.13
81387;BME280;70842;50.744;7.114;2024-01-16T10:58:15;100505.28;;;3.61;51.28
81387;BME280;70842;50.744;7.114;2024-01-16T11:00:44;100502.75;;;4.50;50.91
81387;BME280;70842;50.744;7.114;2024-01-16T11:03:19;100507.34;;;5.88;47.71
81387;BME280;70842;50.744;7.114;2024-01-16T11:05:50;100495.63;;;6.97;44.97
81387;BME280;70842;50.744;7.114;2024-01-16T11:08:18;100494.09;;;10.69;36.87
81387;BME280;70842;50.744;7.114;2024-01-16T11:10:45;100534.50;;;11.23;33.71
81387;BME280;70842;50.744;7.114;2024-01-16T11:13:14;100537.00;;;18.25;25.18
81387;BME280;70842;50.744;7.114;2024-01-16T11:15:41;100529.78;;;20.18;21.89
81387;BME280;70842;50.744;7.114;2024-01-16T11:18:09;100533.44;;;22.12;18.88
81387;BME280;70842;50.744;7.114;2024-01-16T11:20:37;100534.72;;;21.41;19.69
81387;BME280;70842;50.744;7.114;2024-01-16T11:23:25;100523.47;;;21.10;17.67
81387;BME280;70842;50.744;7.114;2024-01-16T11:25:52;100524.50;;;22.92;17.67
81387;BME280;70842;50.744;7.114;2024-01-16T11:28:18;100494.44;;;21.06;18.87
81387;BME280;70842;50.744;7.114;2024-01-16T11:30:46;100487.25;;;19.92;20.73
81387;BME280;70842;50.744;7.114;2024-01-16T11:35:58;100475.81;;;19.40;20.34
81387;BME280;70842;50.744;7.114;2024-01-16T11:38:26;100475.22;;;19.30;20.81
81387;BME280;70842;50.744;7.114;2024-01-16T11:40:55;100486.53;;;23.83;17.33
81387;BME280;70842;50.744;7.114;2024-01-16T11:43:35;100479.78;;;20.93;19.71
81387;BME280;70842;50.744;7.114;2024-01-16T11:46:06;100485.84;;;16.94;24.30
81387;BME280;70842;50.744;7.114;2024-01-16T11:48:36;100473.75;;;12.57;29.32
81387;BME280;70842;50.744;7.114;2024-01-16T11:51:24;100485.66;;;7.26;39.14
81387;BME280;70842;50.744;7.114;2024-01-16T11:53:51;100487.75;;;6.45;42.17
81387;BME280;70842;50.744;7.114;2024-01-16T11:59:32;100490.97;;;9.47;36.59
81387;BME280;70842;50.744;7.114;2024-01-16T12:02:10;100472.22;;;10.14;34.71
81387;BME280;70842;50.744;7.114;2024-01-16T12:04:38;100478.06;;;13.87;27.96
81387;BME280;70842;50.744;7.114;2024-01-16T12:07:05;100463.31;;;10.15;34.30
81387;BME280;70842;50.744;7.114;2024-01-16T12:09:31;100458.66;;;10.29;33.51
81387;BME280;70842;50.744;7.114;2024-01-16T12:12:02;100446.88;;;11.84;32.43
81387;BME280;70842;50.744;7.114;2024-01-16T12:14:29;100442.09;;;12.83;29.66
81387;BME280;70842;50.744;7.114;2024-01-16T12:17:10;100442.78;;;14.81;26.94
81387;BME280;70842;50.744;7.114;2024-01-16T12:19:38;100445.66;;;14.88;27.01
81387;BME280;70842;50.744;7.114;2024-01-16T12:22:08;100442.56;;;12.59;30.49
81387;BME280;70842;50.744;7.114;2024-01-16T12:24:39;100428.38;;;13.24;29.30
81387;BME280;70842;50.744;7.114;2024-01-16T12:27:05;100428.16;;;12.52;30.19
81387;BME280;70842;50.744;7.114;2024-01-16T12:29:32;100431.22;;;8.55;37.47
81387;BME280;70842;50.744;7.114;2024-01-16T12:32:11;100437.69;;;7.69;38.85
81387;BME280;70842;50.744;7.114;2024-01-16T12:34:46;100448.25;;;6.20;41.76
81387;BME280;70842;50.744;7.114;2024-01-16T12:37:14;100433.59;;;5.77;42.44
81387;BME280;70842;50.744;7.114;2024-01-16T12:39:41;100423.25;;;5.47;42.97
81387;BME280;70842;50.744;7.114;2024-01-16T12:42:10;100425.03;;;5.46;43.68
81387;BME280;70842;50.744;7.114;2024-01-16T12:44:38;100417.03;;;5.21;44.19
81387;BME280;70842;50.744;7.114;2024-01-16T12:47:04;100412.47;;;4.68;45.13
81387;BME280;70842;50.744;7.114;2024-01-16T12:49:31;100403.16;;;5.19;44.82
81387;BME280;70842;50.744;7.114;2024-01-16T12:52:15;100413.19;;;4.85;45.51
81387;BME280;70842;50.744;7.114;2024-01-16T12:54:42;100408.97;;;7.18;41.34
81387;BME280;70842;50.744;7.114;2024-01-16T12:57:08;100403.34;;;6.48;40.99
81387;BME280;70842;50.744;7.114;2024-01-16T12:59:40;100401.75;;;4.71;45.68
81387;BME280;70842;50.744;7.114;2024-01-16T13:02:06;100401.19;;;4.52;44.78
81387;BME280;70842;50.744;7.114;2024-01-16T13:04:33;100399.63;;;4.06;46.65
81387;BME280;70842;50.744;7.114;2024-01-16T13:07:02;100388.88;;;5.23;44.11
81387;BME280;70842;50.744;7.114;2024-01-16T13:09:30;100392.25;;;6.18;42.49